Tiempo atmosférico en la estación meteorológica de Morales del Toro, Zamora (710 m.)



Fecha
DESCASC
Temp. máxima en grados centígrados (hora)
DESCASC
Temp. mínima en grados centígrados (hora)
DESCASC
Temp. media en grados centígrados
DESCASC
Racha de viento máxima en m/sg (hora)
DESCASC
Velocidad máxima media en intervalos de 10 minutos(hora)
DESCASC
Precipitaciones diarias en mm
DESCASC
Precipitaciones de 00:00 a 06:00 en mm
DESCASC
Precipitaciones de 06:00 a 12:00 en mm
DESCASC
Precipitaciones de 12:00 a 18:00 en mm
DESCASC
Precipitaciones de 18:00 a 24:00 en mm
DESCASC
05-04-2020 18.1 (13:20) 8.2 (06:50) 13.2 10.56 (13:40) 6.94 (13:40) 22.8 0 0 3.6 19.2
04-04-2020 19 (17:00) 1.2 (07:50) 10.1 14.17 (14:00) 8.89 (17:30) 0 0 0 0 0
03-04-2020 16.8 (17:10) -1.2 (07:50) 7.8 7.78 (00:20) 6.11 (00:40) 0 0 0 0 0
02-04-2020 14.2 (18:10) 4 (00:00) 9.1 10.83 (13:40) 7.5 (13:40) 0.4 0 0.4 0 0
01-04-2020 16.2 (16:30) 1.4 (00:00) 8.8 7.78 (00:10) 6.11 (19:40) 0.8 0 0 0 0.8
31-03-2020 10.7 (18:50) 0.7 (00:00) 5.7 13.89 (10:50) 10.83 (03:00) 0.6 0 0 0.4 0.2
30-03-2020 7.1 (00:00) 1.6 (00:00) 4.3 13.61 (06:40) 9.72 (06:30) 0 0 0 0 0
29-03-2020 18.5 (17:40) -0.1 (00:00) 9.2 14.44 (22:50) 10.56 (21:50) 0 0 0 0 0
28-03-2020 17.4 (16:40) -2.3 (-00:0) 7.5 5.83 (15:30) 3.61 (23:30) 0 0 0 0 0
27-03-2020 14.9 (16:50) -1.3 (-00:0) 6.8 11.11 (11:50) 7.78 (00:10) 0 0 0 0 0
26-03-2020 16.2 (18:00) -1.3 (-00:0) 7.5 11.67 (23:59) 8.06 (23:59) 0 0 0 0 0
25-03-2020 20.5 (17:30) 1.1 (00:00) 10.8 7.22 (12:50) 4.44 (22:30) 0 0 0 0 0
24-03-2020 17.2 (15:40) 3.2 (00:00) 10.2 10 (12:10) 7.5 (11:10) 0 0 0 0 0
23-03-2020 16.4 (16:00) 2.9 (00:00) 9.6 15.28 (17:40) 8.33 (17:40) 0.4 0 0 0.4 0
22-03-2020 14.6 (14:20) 6.3 (05:10) 10.5 10.83 (15:30) 6.39 (15:30) 5 1.6 0 3.4 0
21-03-2020 12.8 (12:20) 5.4 (00:00) 9.1 7.78 (07:00) 5.83 (07:00) 2.2 0 0 0 2.2
20-03-2020 16.3 (15:00) 7.7 (00:00) 12 10 (12:50) 7.5 (15:30) 0 0 0 0 0
19-03-2020 18.2 (14:00) 6.1 (00:00) 12.2 7.22 (11:00) 4.44 (10:20) 0 0 0 0 0
18-03-2020 19.3 (16:40) 5.5 (00:00) 12.4 6.67 (01:00) 4.72 (02:20) 0 0 0 0 0
17-03-2020 15.1 (18:00) 5.8 (00:00) 10.5 19.72 (00:50) 13.89 (00:50) 0 0 0 0 0
16-03-2020 7.4 (16:20) 0.2 (00:00) 3.8 20 (23:00) 14.72 (23:20) 6.8 2 4.4 0.4 0
15-03-2020 19 (14:00) -1.2 (-00:0) 8.9 15.56 (21:10) 11.67 (15:00) 1.6 0 0 0 1.6
14-03-2020 20.2 (16:30) -0.4 (00:00) 9.9 6.39 (15:50) 3.61 (22:20) 0 0 0 0 0
13-03-2020 16.3 (16:00) 4.6 (23:59) 10.4 11.11 (09:30) 7.22 (09:30) 0 0 0 0 0
12-03-2020 20.9 (14:00) 7.6 (00:00) 14.2 8.89 (23:59) 6.94 (23:00) 0 0 0 0 0
11-03-2020 24.4 (16:30) 1.5 (00:00) 12.9 8.06 (16:40) 5.83 (16:40) 0 0 0 0 0

Gráficas

Temp. máximas Temp. mínimas Temp. medias Precipitaciones Rachas de viento máximas Velocidades máximas media en intervalos de 10 minutos

Datos horarios

Fecha y hora oficial Temperatura (ºC) Velocidad del viento (km/h) Dirección del viento Racha (km/h) Dirección de racha Precipitación (mm) Presión (hPa) Tendencia (hPa) Humedad (%)
2020-04-09 23:00:00 13 13 Noroeste 17 Noroeste 0.6 -- -- 98
2020-04-09 22:00:00 13 14 Noroeste 18 Noroeste 0.6 -- -- 98
2020-04-09 21:00:00 13.1 14 Noroeste 24 Noroeste 1.4 -- -- 97
2020-04-09 20:00:00 13.4 8 Oeste 15 Oeste 2.2 -- -- 96
2020-04-09 19:00:00 14 12 Noroeste 15 Noroeste 1.8 -- -- 95
2020-04-09 18:00:00 15.5 6 Norte 13 Noroeste 0 -- -- 87
2020-04-09 17:00:00 15.8 7 Noroeste 11 Norte 0 -- -- 82
2020-04-09 16:00:00 16.3 4 Noroeste 8 Noroeste 0 -- -- 79
2020-04-09 15:00:00 16.9 5 Norte 9 Norte 0 -- -- 77
2020-04-09 14:00:00 16.4 3 Nordeste 8 Norte 0.4 -- -- 82
2020-04-09 13:00:00 15.8 2 Nordeste 11 Norte 0.2 -- -- 80
2020-04-09 12:00:00 15.4 5 Norte 10 Norte 0 -- -- 78
2020-04-09 11:00:00 15.3 4 Sur 14 Sudeste 0 -- -- 79
2020-04-09 10:00:00 13.4 8 Sudeste 14 Sudeste 0 -- -- 85
2020-04-09 09:00:00 11.4 4 Este 10 Este 0 -- -- 94
2020-04-09 08:00:00 11 2 Nordeste 7 Sudeste 0 -- -- 94
2020-04-09 07:00:00 11.4 7 Este 14 Sudeste 0 -- -- 91
2020-04-09 06:00:00 11.1 7 Este 10 Este 0 -- -- 92
2020-04-09 05:00:00 11.2 8 Este 10 Este 0 -- -- 92
2020-04-09 04:00:00 11 5 Este 7 Este 0 -- -- 90
2020-04-09 03:00:00 10.9 5 Este 9 Este 0 -- -- 89
2020-04-09 02:00:00 10.5 6 Este 10 Este 0 -- -- 89
2020-04-09 01:00:00 10.7 8 Este 10 Este 0 -- -- 89
2020-04-09 00:00:00 10.6 5 Este 10 Este 0 -- -- 92
2020-04-08 23:00:00 11.5 8 Este 11 Este 0 -- -- 90
2020-04-08 22:00:00 13 9 Este 13 Este 0 -- -- 84
2020-04-08 21:00:00 14.9 5 Este 10 Nordeste 0 -- -- 75
2020-04-08 20:00:00 18.5 9 Nordeste 14 Nordeste 0 -- -- 61
2020-04-08 19:00:00 19.6 8 Norte 15 Norte 0 -- -- 58
2020-04-08 18:00:00 20.6 9 Norte 15 Norte 0 -- -- 49
2020-04-08 17:00:00 20.7 5 Noroeste 13 Noroeste 0 -- -- 50
2020-04-08 16:00:00 19 5 Nordeste 14 Norte 0 -- -- 57
2020-04-08 15:00:00 18.8 6 Noroeste 13 Norte 0 -- -- 65
2020-04-08 14:00:00 17.1 6 Noroeste 14 Noroeste 0 -- -- 76
2020-04-08 13:00:00 15.7 9 Noroeste 16 Norte 0 -- -- 84
2020-04-08 12:00:00 15.1 4 Norte 12 Norte 0 -- -- 84
2020-04-08 11:00:00 13.7 3 Noroeste 8 Noroeste 0 -- -- 87
2020-04-08 10:00:00 12.7 0 Calma 8 Sudeste 0 -- -- 92
2020-04-08 09:00:00 10.9 2 Este 7 Sur 0 -- -- 98
2020-04-08 08:00:00 10.1 0 Calma 9 Sur 0 -- -- 99
2020-04-08 07:00:00 9.5 5 Sur 9 Sur 0.2 -- -- 99
2020-04-08 06:00:00 9.6 4 Sur 10 Sur 0 -- -- 99
2020-04-08 05:00:00 9.4 5 Sudeste 12 Sur 0 -- -- 99
2020-04-08 04:00:00 9.7 5 Sudeste 10 Sur 0 -- -- 98
2020-04-08 03:00:00 10.3 7 Sur 12 Sur 0 -- -- 98
2020-04-08 02:00:00 10.5 8 Sur 11 Sur 0 -- -- 97
2020-04-08 01:00:00 11.1 5 Sur 13 Sur 0 -- -- 96
2020-04-08 00:00:00 11.6 9 Sur 18 Sur 0 -- -- 95
2020-04-07 23:00:00 12 9 Sur 15 Sur 0 -- -- 94
2020-04-07 22:00:00 12.6 6 Sudeste 12 Sudoeste 0 -- -- 88
2020-04-07 21:00:00 12.1 8 Oeste 35 Oeste 3 -- -- 90
2020-04-07 20:00:00 19.2 7 Sudeste 16 Oeste 0.6 -- -- 66
2020-04-07 19:00:00 17.2 9 Norte 25 Norte 0 -- -- 74
2020-04-07 18:00:00 20.3 11 Norte 23 Norte 0 -- -- 61
2020-04-07 17:00:00 20.9 4 Oeste 22 Norte 0 -- -- 54
2020-04-07 16:00:00 19 3 Sudoeste 18 Sur 0 -- -- 59
2020-04-07 15:00:00 18.7 7 Sur 14 Sur 0 -- -- 61
2020-04-07 14:00:00 19.5 6 Sur 17 Sur 0 -- -- 59
2020-04-07 13:00:00 17 9 Sur 16 Sur 0 -- -- 69
2020-04-07 12:00:00 15.7 10 Sur 18 Sur 0 -- -- 80
2020-04-07 11:00:00 13.4 9 Sur 16 Sur 0 -- -- 85
2020-04-07 10:00:00 11.8 10 Sur 14 Sur 0 -- -- 90
2020-04-07 09:00:00 9.3 6 Este 9 Sudeste 0 -- -- 97
2020-04-07 08:00:00 8.1 4 Sudeste 10 Sur 0 -- -- 98
2020-04-07 07:00:00 9 8 Sur 11 Sur 0 -- -- 98
2020-04-07 06:00:00 9 5 Sudeste 10 Sur 0 -- -- 98
2020-04-07 05:00:00 8.9 5 Sudeste 11 Sudeste 0 -- -- 97
2020-04-07 04:00:00 10.2 7 Sur 14 Sudeste 0 -- -- 96
2020-04-07 03:00:00 10.3 11 Sur 16 Sur 0 -- -- 96
2020-04-07 02:00:00 10.4 6 Sudeste 12 Sudeste 0.2 -- -- 97
2020-04-07 01:00:00 10.5 3 Nordeste 12 Sudeste 0.2 -- -- 98
2020-04-07 00:00:00 10.5 7 Sudeste 10 Sudeste 0.2 -- -- 98
2020-04-06 23:00:00 10.5 7 Sudeste 9 Sudeste 1.2 -- -- 97
2020-04-06 22:00:00 10.7 4 Sudeste 6 Este 0.6 -- -- 95
2020-04-06 21:00:00 11.2 5 Este 7 Este 0.4 -- -- 94
2020-04-06 20:00:00 11.6 4 Norte 15 Noroeste 0 -- -- 87
2020-04-06 19:00:00 12 11 Noroeste 19 Noroeste 0.4 -- -- 85
2020-04-06 18:00:00 13.6 13 Noroeste 23 Noroeste 0 -- -- 76
2020-04-06 17:00:00 14.2 15 Noroeste 23 Oeste 0 -- -- 69
2020-04-06 16:00:00 13.1 19 Oeste 33 Oeste 0 -- -- 71
2020-04-06 15:00:00 14.7 16 Oeste 29 Noroeste 0 -- -- 73
2020-04-06 14:00:00 14.6 21 Noroeste 30 Noroeste 0 -- -- 72
2020-04-06 13:00:00 14.9 16 Oeste 26 Noroeste 0 -- -- 71
2020-04-06 12:00:00 12.8 16 Noroeste 26 Noroeste 0 -- -- 81
2020-04-06 11:00:00 12.2 24 Noroeste 33 Noroeste 0 -- -- 86
2020-04-06 10:00:00 11.6 22 Noroeste 29 Noroeste 0 -- -- 91
2020-04-06 09:00:00 11.2 21 Noroeste 29 Noroeste 0 -- -- 92
2020-04-06 08:00:00 11.2 12 Noroeste 24 Noroeste 0 -- -- 97
2020-04-06 07:00:00 11.5 17 Oeste 31 Oeste 0 -- -- 98
2020-04-06 06:00:00 11.5 21 Oeste 33 Oeste 0 -- -- 96
2020-04-06 05:00:00 11.3 12 Oeste 23 Sudoeste 0.4 -- -- 99
2020-04-06 04:00:00 11.2 11 Sur 22 Sur 0.6 -- -- 99
2020-04-06 03:00:00 11.2 17 Sur 26 Sur 0 -- -- 99
2020-04-06 02:00:00 11.1 16 Sur 27 Sur 0 -- -- 99
2020-04-06 01:00:00 11.1 12 Sur 18 Sur 0.6 -- -- 99
2020-04-06 00:00:00 11.2 10 Sudeste 15 Sudeste 3.4 -- -- 99
2020-04-05 23:00:00 11.2 4 Este 8 Sudeste 4.6 -- -- 99
2020-04-05 22:00:00 11.3 8 Este 12 Nordeste 5.6 -- -- 98
2020-04-05 21:00:00 11.5 9 Nordeste 13 Este 3.2 -- -- 98
2020-04-05 20:00:00 12 9 Este 13 Sudeste 1.6 -- -- 95
2020-04-05 19:00:00 12.7 4 Nordeste 11 Sudeste 0.8 -- -- 92
2020-04-05 18:00:00 12.8 6 Sur 17 Noroeste 1.6 -- -- 92
2020-04-05 17:00:00 13.3 6 Norte 15 Noroeste 0.8 -- -- 87
2020-04-05 16:00:00 14.5 5 Norte 20 Noroeste 0.8 -- -- 79
2020-04-05 15:00:00 13.8 17 Noroeste 32 Noroeste 0.4 -- -- 78
2020-04-05 14:00:00 16.1 22 Oeste 38 Oeste 0 -- -- 61
2020-04-05 13:00:00 17.5 19 Oeste 33 Sudoeste 0 -- -- 54
2020-04-05 12:00:00 15.4 13 Sudoeste 27 Oeste 0 -- -- 59
2020-04-05 11:00:00 13.9 15 Sur 22 Sur 0 -- -- 64
2020-04-05 10:00:00 10 10 Sudoeste 20 Sur 0 -- -- 77
2020-04-05 09:00:00 9.1 12 Sur 27 Sur 0 -- -- 77
2020-04-05 08:00:00 8.5 9 Sur 18 Sur 0 -- -- 79
2020-04-05 07:00:00 8.5 12 Sudoeste 19 Sudoeste 0 -- -- 80
2020-04-05 06:00:00 8.5 14 Sudoeste 19 Sudoeste 0 -- -- 78
2020-04-05 05:00:00 10.5 10 Oeste 18 Oeste 0 -- -- 70
2020-04-05 04:00:00 10.2 8 Oeste 14 Oeste 0 -- -- 71
2020-04-05 03:00:00 11 10 Sudoeste 15 Sudoeste 0 -- -- 67
2020-04-05 02:00:00 11.3 10 Sudoeste 14 Sudoeste 0 -- -- 66
2020-04-05 01:00:00 11.6 9 Sudoeste 15 Sudoeste 0 -- -- 65
2020-04-05 00:00:00 11.4 7 Sudoeste 12 Sudoeste 0 -- -- 64
2020-04-04 23:00:00 12.2 10 Sudoeste 15 Sudoeste 0 -- -- 59
2020-04-04 22:00:00 12.7 12 Sudoeste 25 Sudoeste 0 -- -- 55
2020-04-04 21:00:00 14.5 17 Sudoeste 29 Sudoeste 0 -- -- 48
2020-04-04 20:00:00 16.2 22 Sudoeste 38 Sudoeste 0 -- -- 43
2020-04-04 19:00:00 16.6 26 Sudoeste 46 Sur 0 -- -- 41
2020-04-04 18:00:00 17.1 28 Sudoeste 48 Sudoeste 0 -- -- 41
2020-04-04 17:00:00 19 27 Sudoeste 46 Sur 0 -- -- 32
2020-04-04 16:00:00 18.7 29 Sudoeste 50 Sur 0 -- -- 36
2020-04-04 15:00:00 18.7 22 Sudoeste 49 Sur 0 -- -- 37
2020-04-04 14:00:00 17.8 29 Sur 51 Sur 0 -- -- 41
2020-04-04 13:00:00 16.6 26 Sudoeste 38 Sudoeste 0 -- -- 43
2020-04-04 12:00:00 14.1 18 Sur 26 Sur 0 -- -- 58
2020-04-04 11:00:00 10.1 13 Sur 21 Sur 0 -- -- 65
2020-04-04 10:00:00 6.8 10 Sudeste 19 Sudeste 0 -- -- 76
2020-04-04 09:00:00 3.4 6 Sudeste 12 Sudeste 0 -- -- 85
2020-04-04 08:00:00 1.3 4 Sudeste 6 Sudeste 0 -- -- 92
2020-04-04 07:00:00 1.4 2 Este 14 Este 0 -- -- 90
2020-04-04 06:00:00 1.3 11 Este 14 Este 0 -- -- 92
2020-04-04 05:00:00 2.9 4 Sudeste 10 Sur 0 -- -- 91
2020-04-04 04:00:00 2.7 7 Este 8 Este 0 -- -- 90
2020-04-04 03:00:00 2.6 6 Este 10 Este 0 -- -- 90
2020-04-04 02:00:00 3.1 8 Este 13 Este 0 -- -- 89
2020-04-04 01:00:00 3.9 11 Este 14 Este 0 -- -- 86
2020-04-04 00:00:00 4.5 12 Este 14 Este 0 -- -- 86
2020-04-03 23:00:00 6.3 11 Este 14 Este 0 -- -- 81
2020-04-03 22:00:00 9 4 Este 5 Este 0 -- -- 65
2020-04-03 21:00:00 12.3 0 Calma 4 Sudeste 0 -- -- 51
2020-04-03 20:00:00 15.4 4 Oeste 13 Oeste 0 -- -- 42
2020-04-03 19:00:00 16.2 6 Noroeste 12 Oeste 0 -- -- 44
2020-04-03 18:00:00 16.7 4 Nordeste 14 Oeste 0 -- -- 45
2020-04-03 17:00:00 15.8 6 Sudeste 17 Este 0 -- -- 46
2020-04-03 16:00:00 14.4 4 Noroeste 13 Noroeste 0 -- -- 50
2020-04-03 15:00:00 13.8 6 Sudeste 15 Este 0 -- -- 52
2020-04-03 14:00:00 12.9 4 Sudeste 17 Sudoeste 0 -- -- 54
2020-04-03 13:00:00 10.8 9 Sur 19 Sudeste 0 -- -- 60
2020-04-03 12:00:00 8.2 7 Sudeste 18 Sudeste 0 -- -- 66
2020-04-03 11:00:00 6.7 11 Sudeste 17 Sudeste 0 -- -- 71
2020-04-03 10:00:00 4.4 2 Sudoeste 9 Este 0 -- -- 80
2020-04-03 09:00:00 1.1 4 Este 8 Este 0 -- -- 90
2020-04-03 08:00:00 -0.9 5 Este 6 Este 0 -- -- 95
2020-04-03 07:00:00 -0.1 3 Este 6 Este 0 -- -- 94
2020-04-03 06:00:00 0.7 3 Este 6 Este 0 -- -- 92
2020-04-03 05:00:00 0.5 4 Este 10 Este 0 -- -- 93
2020-04-03 04:00:00 1.8 10 Sudeste 20 Sudeste 0 -- -- 87
2020-04-03 03:00:00 3.1 13 Sudeste 19 Sudeste 0 -- -- 86
2020-04-03 02:00:00 3.5 10 Sudeste 18 Sudeste 0 -- -- 84
2020-04-03 01:00:00 5.7 16 Sudeste 28 Este 0 -- -- 77
2020-04-03 00:00:00 6.3 10 Sudeste 19 Sudeste 0 -- -- 77
2020-04-02 23:00:00 6 15 Sudeste 24 Sudeste 0 -- -- 83
2020-04-02 22:00:00 7.3 10 Sudeste 25 Sudeste 0 -- -- 75
2020-04-02 21:00:00 9.7 18 Sudeste 25 Sudeste 0 -- -- 66
2020-04-02 20:00:00 11.4 11 Sudeste 27 Este 0 -- -- 62
2020-04-02 19:00:00 12 14 Este 31 Este 0 -- -- 62
2020-04-02 18:00:00 13.7 21 Este 33 Sudeste 0 -- -- 56
2020-04-02 17:00:00 12.7 19 Este 27 Este 0 -- -- 64
2020-04-02 16:00:00 10.7 16 Este 37 Este 0 -- -- 78
2020-04-02 15:00:00 11.9 24 Sudeste 37 Sudeste 0 -- -- 65
2020-04-02 14:00:00 13.1 23 Sudeste 39 Sudeste 0 -- -- 64
2020-04-02 13:00:00 10.9 19 Sudeste 30 Sudeste 0 -- -- 78
2020-04-02 12:00:00 8.8 13 Este 20 Este 0 -- -- 88
2020-04-02 11:00:00 7.6 5 Este 10 Este 0.2 -- -- 92
2020-04-02 10:00:00 7 10 Sudeste 16 Este 0.2 -- -- 93
2020-04-02 09:00:00 6.8 9 Este 14 Este 0 -- -- 94
2020-04-02 08:00:00 6.8 9 Este 16 Este 0 -- -- 95
2020-04-02 07:00:00 6.6 11 Este 16 Este 0 -- -- 96
2020-04-02 06:00:00 6.1 8 Este 19 Este 0 -- -- 96
2020-04-02 05:00:00 6.1 15 Este 21 Este 0 -- -- 95
2020-04-02 04:00:00 5 10 Este 18 Este 0 -- -- 96
2020-04-02 03:00:00 4.8 11 Este 15 Este 0 -- -- 95
2020-04-02 02:00:00 4.5 13 Este 15 Este 0 -- -- 93
2020-04-02 01:00:00 4.7 11 Este 15 Este 0 -- -- 89
2020-04-02 00:00:00 5.9 7 Nordeste 17 Norte 0 -- -- 87
2020-04-01 23:00:00 6.5 13 Nordeste 19 Norte 0 -- -- 91
2020-04-01 22:00:00 7.4 4 Noroeste 21 Noroeste 0.4 -- -- 91
2020-04-01 21:00:00 7.3 13 Noroeste 23 Noroeste 0.4 -- -- 90
2020-04-01 20:00:00 9.8 17 Sudeste 28 Este 0 -- -- 75
2020-04-01 19:00:00 11.7 16 Este 21 Sudeste 0 -- -- 66
2020-04-01 18:00:00 13.5 5 Sudeste 13 Sudeste 0 -- -- 53
2020-04-01 17:00:00 13.5 8 Sudeste 15 Sudeste 0 -- -- 56
2020-04-01 16:00:00 13.6 6 Sudoeste 18 Sudoeste 0 -- -- 54
2020-04-01 15:00:00 13.1 7 Sudoeste 14 Sudoeste 0 -- -- 62
2020-04-01 14:00:00 11.4 3 Oeste 13 Oeste 0 -- -- 71
2020-04-01 13:00:00 10.3 8 Oeste 13 Oeste 0 -- -- 81
2020-04-01 12:00:00 10.5 7 Sudeste 13 Sudeste 0 -- -- 74
2020-04-01 11:00:00 8.7 8 Sudeste 13 Sudeste 0 -- -- 83
2020-04-01 10:00:00 5 4 Sudeste 6 Sudeste 0 -- -- 97
2020-04-01 09:00:00 3 4 Este 10 Este 0 -- -- 98
2020-04-01 08:00:00 2 6 Este 9 Este 0 -- -- 98
2020-04-01 07:00:00 1.4 6 Este 9 Este 0 -- -- 98
2020-04-01 06:00:00 3.1 5 Sudeste 9 Sudeste 0 -- -- 97
2020-04-01 05:00:00 4.2 6 Sur 11 Sudeste 0 -- -- 96
2020-04-01 04:00:00 5.2 8 Sudeste 13 Sudeste 0 -- -- 96
2020-04-01 03:00:00 5.6 7 Sudeste 13 Sudeste 0 -- -- 95
2020-04-01 02:00:00 6.3 9 Sudeste 26 Sudeste 0 -- -- 93
2020-04-01 01:00:00 6.7 16 Sur 28 Sudeste 0 -- -- 93
2020-04-01 00:00:00 7 21 Sudeste 32 Sudeste 0.2 -- -- 89
2020-03-31 23:00:00 7.3 14 Sudeste 28 Sudeste 0 -- -- 89
2020-03-31 22:00:00 7.6 18 Sudeste 35 Sudeste 0 -- -- 86
2020-03-31 21:00:00 7.9 23 Sudeste 36 Sudeste 0 -- -- 80
2020-03-31 20:00:00 9.2 24 Sudeste 35 Sudeste 0 -- -- 76
2020-03-31 19:00:00 10.7 26 Sudeste 36 Sudeste 0 -- -- 69
2020-03-31 18:00:00 9.6 24 Sudeste 34 Sudeste 0.2 -- -- 73
2020-03-31 17:00:00 7.9 24 Sudeste 38 Sudeste 0 -- -- 76
2020-03-31 16:00:00 8.9 29 Sudeste 39 Sudeste 0 -- -- 67
2020-03-31 15:00:00 9.4 20 Sudeste 36 Sudeste 0.2 -- -- 70
2020-03-31 14:00:00 7 28 Sudeste 43 Este 0 -- -- 77
2020-03-31 13:00:00 6.9 32 Sudeste 44 Sudeste 0 -- -- 71
2020-03-31 12:00:00 6 29 Este 45 Sudeste 0 -- -- 66
2020-03-31 11:00:00 4.6 34 Este 50 Sudeste 0 -- -- 68
2020-03-31 10:00:00 2.6 29 Este 46 Este 0 -- -- 73
2020-03-31 09:00:00 1.2 23 Este 39 Este 0 -- -- 75
2020-03-31 08:00:00 0.8 29 Este 37 Este 0 -- -- 77
2020-03-31 07:00:00 0.8 23 Este 36 Este 0 -- -- 76
2020-03-31 06:00:00 0.7 30 Este 46 Este 0 -- -- 74
2020-03-31 05:00:00 1 28 Este 39 Este 0 -- -- 73
2020-03-31 04:00:00 1.2 31 Este 45 Este 0 -- -- 71
2020-03-31 03:00:00 1.2 39 Este 49 Este 0 -- -- 69
2020-03-31 02:00:00 1.5 31 Este 44 Nordeste 0 -- -- 66
2020-03-31 01:00:00 1.7 30 Nordeste 44 Nordeste 0 -- -- 65
2020-03-31 00:00:00 1.6 27 Nordeste 37 Nordeste 0 -- -- 67
2020-03-30 23:00:00 2.1 26 Nordeste 41 Nordeste 0 -- -- 62
2020-03-30 22:00:00 2.9 28 Nordeste 40 Nordeste 0 -- -- 59
2020-03-30 21:00:00 3.7 26 Nordeste 40 Nordeste 0 -- -- 52
2020-03-30 20:00:00 4.6 24 Nordeste 40 Nordeste 0 -- -- 49
2020-03-30 19:00:00 5.5 33 Nordeste 44 Nordeste 0 -- -- 49
2020-03-30 18:00:00 5.8 27 Nordeste 41 Este 0 -- -- 48
2020-03-30 17:00:00 6.1 25 Nordeste 43 Este 0 -- -- 47
2020-03-30 16:00:00 5.8 31 Este 47 Nordeste 0 -- -- 51
2020-03-30 15:00:00 5.8 24 Nordeste 37 Este 0 -- -- 48
2020-03-30 14:00:00 4.5 28 Este 47 Nordeste 0 -- -- 55
2020-03-30 13:00:00 3.9 32 Nordeste 44 Nordeste 0 -- -- 60
2020-03-30 12:00:00 3.4 30 Nordeste 45 Nordeste 0 -- -- 61
2020-03-30 11:00:00 3.2 26 Nordeste 36 Este 0 -- -- 65
2020-03-30 10:00:00 2 24 Nordeste 38 Nordeste 0 -- -- 77
2020-03-30 09:00:00 1.9 26 Nordeste 40 Este 0 -- -- 74
2020-03-30 08:00:00 2.5 25 Nordeste 45 Nordeste 0 -- -- 71
2020-03-30 07:00:00 2.6 31 Nordeste 49 Nordeste 0 -- -- 79
2020-03-30 06:00:00 3.8 26 Nordeste 41 Este 0 -- -- 75
2020-03-30 05:00:00 4.1 27 Nordeste 41 Nordeste 0 -- -- 77
2020-03-30 04:00:00 4.8 28 Nordeste 43 Nordeste 0 -- -- 73
2020-03-30 03:00:00 5.2 23 Nordeste 35 Nordeste 0 -- -- 74
2020-03-30 02:00:00 6.2 27 Nordeste 40 Nordeste 0 -- -- 73
2020-03-30 01:00:00 6.7 21 Nordeste 36 Nordeste 0 -- -- 75
2020-03-30 00:00:00 7.1 29 Nordeste 47 Nordeste 0 -- -- 74
2020-03-29 23:00:00 7.7 33 Nordeste 52 Nordeste 0 -- -- 69
2020-03-29 22:00:00 9 37 Nordeste 50 Nordeste 0 -- -- 65
2020-03-29 21:00:00 11.6 26 Nordeste 33 Nordeste 0 -- -- 52
2020-03-29 20:00:00 15.2 8 Norte 11 Norte 0 -- -- 43
2020-03-29 19:00:00 17.7 6 Norte 14 Norte 0 -- -- 34
2020-03-29 18:00:00 17.8 7 Noroeste 19 Noroeste 0 -- -- 34
2020-03-29 17:00:00 17.9 5 Noroeste 18 Noroeste 0 -- -- 37
2020-03-29 16:00:00 18.1 6 Nordeste 15 Oeste 0 -- -- 39
2020-03-29 15:00:00 17 4 Este 15 Norte 0 -- -- 44
2020-03-29 14:00:00 15.5 7 Nordeste 15 Nordeste 0 -- -- 53
2020-03-29 13:00:00 14.6 6 Este 15 Nordeste 0 -- -- 55
2020-03-29 12:00:00 12.1 7 Este 13 Este 0 -- -- 60
2020-03-29 11:00:00 8.8 3 Este 8 Nordeste 0 -- -- 73
2020-03-29 10:00:00 4.5 5 Nordeste 15 Norte 0 -- -- 84
2020-03-29 09:00:00 1.6 13 Norte 16 Norte 0 -- -- 91
2020-03-29 08:00:00 0.2 6 Norte 9 Nordeste 0 -- -- 93
2020-03-29 07:00:00 0.9 0 Calma 12 Norte 0 -- -- 89
2020-03-29 06:00:00 1.7 10 Nordeste 13 Nordeste 0 -- -- 86
2020-03-29 05:00:00 2.6 9 Nordeste 11 Nordeste 0 -- -- 82
2020-03-29 03:00:00 3.8 0 Calma 13 Nordeste 0 -- -- 75
2020-03-29 01:00:00 4.1 12 Nordeste 15 Norte 0 -- -- 76
2020-03-29 00:00:00 5.7 13 Norte 14 Nordeste 0 -- -- 70
2020-03-28 23:00:00 6.6 10 Norte 12 Norte 0 -- -- 65
2020-03-28 22:00:00 7.4 11 Norte 14 Norte 0 -- -- 63
2020-03-28 21:00:00 9.1 9 Noroeste 11 Noroeste 0 -- -- 51
2020-03-28 20:00:00 11.7 6 Noroeste 8 Noroeste 0 -- -- 43
2020-03-28 19:00:00 15.3 0 Calma 6 Oeste 0 -- -- 32
2020-03-28 18:00:00 16.4 2 Norte 8 Este 0 -- -- 33
2020-03-28 17:00:00 16.9 3 Norte 15 Este 0 -- -- 28
2020-03-28 16:00:00 16.3 10 Este 21 Este 0 -- -- 30
2020-03-28 15:00:00 16.5 8 Este 15 Este 0 -- -- 35
2020-03-28 14:00:00 15 8 Nordeste 15 Sur 0 -- -- 40
2020-03-28 13:00:00 13.4 6 Este 12 Este 0 -- -- 41
2020-03-28 12:00:00 11.3 4 Norte 10 Nordeste 0 -- -- 56
2020-03-28 11:00:00 9 4 Este 6 Este 0 -- -- 61
2020-03-28 10:00:00 6 3 Nordeste 8 Este 0 -- -- 66
2020-03-28 09:00:00 3.7 2 Este 5 Nordeste 0 -- -- 69
2020-03-28 08:00:00 -0.2 0 Calma 7 Nordeste 0 -- -- 85
2020-03-28 07:00:00 -2 4 Nordeste 8 Nordeste 0 -- -- 89
2020-03-28 06:00:00 -1.6 3 Nordeste 8 Nordeste 0 -- -- 88
2020-03-28 05:00:00 -0.9 5 Norte 12 Nordeste 0 -- -- 86
2020-03-28 04:00:00 -0.6 6 Nordeste 14 Este 0 -- -- 86
2020-03-28 03:00:00 -0.2 9 Nordeste 14 Nordeste 0 -- -- 84
2020-03-28 02:00:00 0.3 11 Nordeste 13 Norte 0 -- -- 83
2020-03-28 01:00:00 1.2 9 Nordeste 11 Nordeste 0 -- -- 80
2020-03-28 00:00:00 1.4 10 Nordeste 14 Norte 0 -- -- 79
2020-03-27 23:00:00 2.8 10 Nordeste 13 Nordeste 0 -- -- 72
2020-03-27 22:00:00 5.7 2 Sudoeste 6 Oeste 0 -- -- 59
2020-03-27 21:00:00 6.8 4 Sudeste 14 Sudeste 0 -- -- 54
2020-03-27 20:00:00 8.7 5 Este 20 Sudeste 0 -- -- 44
2020-03-27 19:00:00 13.2 10 Sudeste 20 Este 0 -- -- 31
2020-03-27 18:00:00 13.6 12 Sur 23 Este 0 -- -- 32
2020-03-27 17:00:00 14.6 13 Sudeste 32 Este 0 -- -- 33
2020-03-27 16:00:00 13.4 14 Este 32 Este 0 -- -- 38
2020-03-27 15:00:00 12.5 21 Este 33 Este 0 -- -- 40
2020-03-27 14:00:00 11.6 19 Este 36 Este 0 -- -- 42
2020-03-27 13:00:00 10 19 Este 40 Este 0 -- -- 44
2020-03-27 12:00:00 7.7 27 Nordeste 40 Nordeste 0 -- -- 52
2020-03-27 11:00:00 6.4 24 Nordeste 33 Este 0 -- -- 51
2020-03-27 10:00:00 4.8 20 Nordeste 33 Nordeste 0 -- -- 61
2020-03-27 09:00:00 2.1 26 Nordeste 32 Nordeste 0 -- -- 71
2020-03-27 08:00:00 0.1 20 Nordeste 28 Nordeste 0 -- -- 80
2020-03-27 07:00:00 -0.7 9 Norte 21 Nordeste 0 -- -- 80
2020-03-27 06:00:00 -1.3 10 Nordeste 28 Nordeste 0 -- -- 82
2020-03-27 05:00:00 0.9 23 Nordeste 34 Nordeste 0 -- -- 72
2020-03-27 04:00:00 1.1 12 Nordeste 22 Nordeste 0 -- -- 73
2020-03-27 03:00:00 2 17 Nordeste 31 Este 0 -- -- 70
2020-03-27 02:00:00 2.7 20 Nordeste 37 Nordeste 0 -- -- 70
2020-03-27 01:00:00 3.7 24 Nordeste 37 Nordeste 0 -- -- 69
2020-03-27 00:00:00 4.3 29 Nordeste 42 Este 0 -- -- 70
2020-03-26 23:00:00 5 24 Nordeste 39 Este 0 -- -- 69
2020-03-26 22:00:00 5.3 17 Este 37 Nordeste 0 -- -- 67
2020-03-26 21:00:00 7.1 26 Nordeste 35 Este 0 -- -- 62
2020-03-26 20:00:00 8.6 14 Este 18 Este 0 -- -- 60
2020-03-26 19:00:00 13.5 13 Este 18 Este 0 -- -- 39
2020-03-26 18:00:00 16.2 3 Noroeste 18 Nordeste 0 -- -- 27
2020-03-26 17:00:00 15 12 Nordeste 23 Nordeste 0 -- -- 30
2020-03-26 16:00:00 14.9 8 Nordeste 21 Norte 0 -- -- 33
2020-03-26 15:00:00 14.1 5 Norte 16 Nordeste 0 -- -- 35
2020-03-26 14:00:00 12.6 8 Nordeste 15 Nordeste 0 -- -- 37
2020-03-26 13:00:00 12.2 6 Sudoeste 15 Oeste 0 -- -- 40
2020-03-26 12:00:00 10.6 5 Este 14 Este 0 -- -- 44
2020-03-26 11:00:00 9.1 6 Sudeste 14 Sudeste 0 -- -- 58
2020-03-26 10:00:00 6.2 6 Sudeste 11 Sudeste 0 -- -- 65
2020-03-26 09:00:00 3.1 0 Calma 6 Nordeste 0 -- -- 77
2020-03-26 08:00:00 0.1 4 Nordeste 9 Nordeste 0 -- -- 88
2020-03-26 07:00:00 -0.8 4 Norte 7 Este 0 -- -- 90
2020-03-26 06:00:00 -1.2 4 Nordeste 9 Norte 0 -- -- 90
2020-03-26 05:00:00 -0.3 5 Nordeste 7 Norte 0 -- -- 84
2020-03-26 04:00:00 0.6 4 Nordeste 12 Sudeste 0 -- -- 82
2020-03-26 03:00:00 1.7 4 Nordeste 14 Nordeste 0 -- -- 83
2020-03-26 02:00:00 2.8 6 Norte 10 Nordeste 0 -- -- 78
2020-03-26 01:00:00 4.1 8 Nordeste 15 Nordeste 0 -- -- 77
2020-03-26 00:00:00 5.3 14 Nordeste 18 Norte 0 -- -- 76
2020-03-25 23:00:00 7.2 15 Nordeste 24 Norte 0 -- -- 70
2020-03-25 22:00:00 8.5 12 Norte 20 Noroeste 0 -- -- 71
2020-03-25 21:00:00 11.4 5 Este 8 Este 0 -- -- 61
2020-03-25 20:00:00 13 4 Este 10 Sudeste 0 -- -- 52
2020-03-25 19:00:00 16.1 5 Sur 8 Sudeste 0 -- -- 42
2020-03-25 18:00:00 20.2 3 Nordeste 13 Sur 0 -- -- 32
2020-03-25 17:00:00 19.9 6 Este 22 Nordeste 0 -- -- 33
2020-03-25 16:00:00 18.5 11 Norte 19 Noroeste 0 -- -- 36
2020-03-25 15:00:00 17.8 10 Norte 26 Norte 0 -- -- 40
2020-03-25 14:00:00 16.8 13 Norte 24 Noroeste 0 -- -- 50
2020-03-25 13:00:00 15.9 13 Oeste 26 Oeste 0 -- -- 56
2020-03-25 12:00:00 13.7 9 Oeste 20 Sudoeste 0 -- -- 66
2020-03-25 11:00:00 10.5 10 Oeste 15 Sudoeste 0 -- -- 74
2020-03-25 10:00:00 8.4 3 Sudoeste 6 Sudoeste 0 -- -- 80
2020-03-25 09:00:00 5.9 0 Calma 5 Nordeste 0 -- -- 86
2020-03-25 08:00:00 1.8 4 Norte 7 Nordeste 0 -- -- 95
2020-03-25 07:00:00 1.5 8 Nordeste 9 Nordeste 0 -- -- 93
2020-03-25 06:00:00 2.9 5 Norte 7 Norte 0 -- -- 90
2020-03-25 05:00:00 2.8 4 Norte 10 Norte 0 -- -- 92
2020-03-25 04:00:00 2.8 8 Nordeste 10 Norte 0 -- -- 91
2020-03-25 03:00:00 4 7 Nordeste 9 Norte 0 -- -- 87
2020-03-25 02:00:00 4.9 7 Norte 13 Norte 0 -- -- 86
2020-03-25 01:00:00 4.8 10 Norte 14 Norte 0 -- -- 88
2020-03-25 00:00:00 4.5 9 Nordeste 12 Nordeste 0 -- -- 91
2020-03-24 23:00:00 5.5 10 Nordeste 18 Nordeste 0 -- -- 87
2020-03-24 22:00:00 6.1 8 Nordeste 13 Nordeste 0 -- -- 88
2020-03-24 21:00:00 8.3 12 Nordeste 22 Este 0 -- -- 79
2020-03-24 20:00:00 12 15 Este 23 Nordeste 0 -- -- 62
2020-03-24 19:00:00 14.4 18 Nordeste 31 Este 0 -- -- 52
2020-03-24 18:00:00 15.4 21 Nordeste 28 Nordeste 0 -- -- 52
2020-03-24 17:00:00 15.4 22 Nordeste 32 Nordeste 0 -- -- 52
2020-03-24 16:00:00 17 17 Este 30 Este 0 -- -- 47
2020-03-24 15:00:00 16.1 22 Este 36 Este 0 -- -- 53
2020-03-24 14:00:00 15.6 16 Nordeste 28 Este 0 -- -- 52
2020-03-24 13:00:00 14.7 21 Nordeste 36 Este 0 -- -- 60
2020-03-24 12:00:00 14 25 Este 35 Este 0 -- -- 61
2020-03-24 11:00:00 12.4 26 Este 36 Este 0 -- -- 67
2020-03-24 10:00:00 11.1 26 Este 35 Este 0 -- -- 75
2020-03-24 09:00:00 8.7 18 Nordeste 28 Nordeste 0 -- -- 86
2020-03-24 08:00:00 4.8 14 Nordeste 21 Nordeste 0 -- -- 96
2020-03-24 07:00:00 4.6 14 Norte 22 Nordeste 0 -- -- 96
2020-03-24 06:00:00 3.5 17 Nordeste 19 Nordeste 0 -- -- 97
2020-03-24 05:00:00 4 16 Nordeste 20 Nordeste 0 -- -- 97
2020-03-24 04:00:00 3.3 10 Nordeste 17 Nordeste 0 -- -- 97
2020-03-24 03:00:00 4.1 13 Nordeste 16 Nordeste 0 -- -- 95
2020-03-24 02:00:00 4.1 13 Nordeste 17 Nordeste 0 -- -- 95
2020-03-24 01:00:00 6.5 13 Nordeste 21 Nordeste 0 -- -- 87
2020-03-24 00:00:00 7 12 Nordeste 20 Este 0 -- -- 86
2020-03-23 23:00:00 7.4 14 Este 24 Este 0 -- -- 83
2020-03-23 22:00:00 8 15 Este 27 Este 0 -- -- 81
2020-03-23 21:00:00 9.8 19 Este 35 Este 0 -- -- 76
2020-03-23 20:00:00 11 18 Este 30 Este 0 -- -- 69
2020-03-23 19:00:00 11.8 15 Nordeste 33 Nordeste 0 -- -- 70
2020-03-23 18:00:00 11.4 4 Este 55 Este 0.4 -- -- 75
2020-03-23 17:00:00 15.1 13 Este 29 Este 0 -- -- 57
2020-03-23 16:00:00 16.4 18 Nordeste 31 Este 0 -- -- 50
2020-03-23 15:00:00 14.2 22 Este 34 Este 0 -- -- 60
2020-03-23 14:00:00 14.6 17 Este 35 Este 0 -- -- 58
2020-03-23 13:00:00 14.8 26 Este 35 Nordeste 0 -- -- 58
2020-03-23 12:00:00 12.9 21 Este 30 Este 0 -- -- 64
2020-03-23 11:00:00 11.8 23 Este 32 Este 0 -- -- 72
2020-03-23 10:00:00 9.8 20 Este 30 Este 0 -- -- 80
2020-03-23 09:00:00 7.7 18 Nordeste 27 Nordeste 0 -- -- 85
2020-03-23 08:00:00 5.6 9 Nordeste 23 Nordeste 0 -- -- 91
2020-03-23 07:00:00 5.2 15 Este 24 Este 0 -- -- 95
2020-03-23 06:00:00 3.3 12 Nordeste 19 Nordeste 0 -- -- 96
2020-03-23 05:00:00 4.3 14 Nordeste 23 Nordeste 0 -- -- 95
2020-03-23 04:00:00 5.1 17 Nordeste 24 Nordeste 0 -- -- 93
2020-03-23 03:00:00 5.3 16 Nordeste 25 Nordeste 0 -- -- 95
2020-03-23 02:00:00 5.8 18 Nordeste 23 Nordeste 0 -- -- 94
2020-03-23 01:00:00 7.2 14 Nordeste 19 Norte 0 -- -- 92
2020-03-23 00:00:00 8.7 7 Norte 10 Nordeste 0 -- -- 89
2020-03-22 23:00:00 8.7 6 Norte 9 Norte 0 -- -- 91
2020-03-22 22:00:00 7.9 7 Norte 12 Norte 0 -- -- 94
2020-03-22 21:00:00 8.6 2 Nordeste 8 Noroeste 0 -- -- 89
2020-03-22 20:00:00 8.9 7 Noroeste 9 Noroeste 0 -- -- 89
2020-03-22 19:00:00 11.5 4 Sudeste 32 Este 0 -- -- 77
2020-03-22 18:00:00 13.6 15 Este 32 Sudeste 0 -- -- 66
2020-03-22 17:00:00 12.4 4 Noroeste 11 Norte 0 -- -- 73
2020-03-22 16:00:00 8.6 8 Norte 39 Nordeste 3.2 -- -- 90
2020-03-22 15:00:00 13.8 4 Norte 12 Sudeste 0.2 -- -- 69
2020-03-22 14:00:00 13.3 6 Sudeste 13 Sudeste 0 -- -- 72
2020-03-22 13:00:00 13.7 7 Sudeste 13 Sudeste 0 -- -- 73
2020-03-22 12:00:00 11.9 3 Este 9 Este 0 -- -- 78
2020-03-22 11:00:00 10.2 3 Nordeste 5 Nordeste 0 -- -- 80
2020-03-22 10:00:00 8.5 0 Calma 5 Este 0 -- -- 88
2020-03-22 09:00:00 7.5 0 Calma 9 Nordeste 0 -- -- 92
2020-03-22 08:00:00 7 2 Nordeste 10 Nordeste 0 -- -- 95
2020-03-22 07:00:00 6.7 7 Nordeste 14 Nordeste 0 -- -- 96
2020-03-22 06:00:00 6.4 12 Nordeste 18 Nordeste 0 -- -- 96
2020-03-22 05:00:00 6.4 11 Nordeste 14 Nordeste 0 -- -- 97
2020-03-22 04:00:00 6.7 9 Nordeste 12 Nordeste 0 -- -- 96
2020-03-22 03:00:00 6.7 6 Norte 9 Norte 0.2 -- -- 96
2020-03-22 02:00:00 6.7 2 Norte 9 Este 0.4 -- -- 95
2020-03-22 01:00:00 7.2 9 Este 14 Este 1 -- -- 97
2020-03-22 00:00:00 7.7 3 Noroeste 6 Oeste 0.4 -- -- 97
2020-03-21 23:00:00 7.8 5 Oeste 6 Oeste 0.4 -- -- 96
2020-03-21 22:00:00 8 6 Oeste 9 Oeste 0 -- -- 96
2020-03-21 21:00:00 8.3 5 Oeste 9 Oeste 1 -- -- 96
2020-03-21 20:00:00 8.6 7 Oeste 12 Oeste 0.4 -- -- 94
2020-03-21 19:00:00 9.5 9 Oeste 13 Sudoeste 0 -- -- 88
2020-03-21 18:00:00 10.3 12 Oeste 16 Oeste 0 -- -- 83
2020-03-21 17:00:00 11.4 6 Sudoeste 15 Sur 0 -- -- 73
2020-03-21 16:00:00 11.8 10 Sur 19 Sur 0 -- -- 73
2020-03-21 15:00:00 12.2 11 Sudeste 17 Sudeste 0 -- -- 68
2020-03-21 14:00:00 11.9 10 Sur 18 Sur 0 -- -- 71
2020-03-21 13:00:00 12.1 6 Sur 15 Sur 0 -- -- 74
2020-03-21 12:00:00 12.4 6 Sudeste 12 Este 0 -- -- 70
2020-03-21 11:00:00 10.4 7 Sur 13 Este 0 -- -- 81
2020-03-21 10:00:00 10.9 9 Este 19 Este 0 -- -- 76
2020-03-21 09:00:00 8.1 13 Este 19 Este 0 -- -- 85
2020-03-21 08:00:00 5.6 10 Nordeste 26 Este 0 -- -- 93
2020-03-21 07:00:00 7.5 21 Este 28 Este 0 -- -- 85
2020-03-21 06:00:00 7.3 17 Este 22 Este 0 -- -- 89
2020-03-21 05:00:00 7.5 12 Este 21 Este 0 -- -- 90
2020-03-21 04:00:00 7.6 14 Este 27 Este 0 -- -- 86
2020-03-21 03:00:00 7.5 14 Nordeste 23 Nordeste 0 -- -- 88
2020-03-21 02:00:00 7.3 14 Este 20 Este 0 -- -- 90
2020-03-21 01:00:00 7.5 14 Este 26 Este 0 -- -- 87
2020-03-21 00:00:00 7.8 16 Este 23 Este 0 -- -- 87
2020-03-20 23:00:00 8.3 13 Este 19 Este 0 -- -- 87
2020-03-20 22:00:00 8.8 10 Este 15 Este 0 -- -- 86
2020-03-20 21:00:00 9.5 5 Sudeste 12 Sudeste 0 -- -- 85
2020-03-20 20:00:00 10.5 8 Sudeste 17 Sudeste 0 -- -- 87
2020-03-20 19:00:00 11.6 4 Nordeste 10 Noroeste 0 -- -- 81
2020-03-20 18:00:00 12.1 8 Noroeste 22 Oeste 0 -- -- 77
2020-03-20 17:00:00 12.4 17 Oeste 36 Oeste 0 -- -- 76
2020-03-20 16:00:00 12.9 25 Oeste 35 Oeste 0 -- -- 77
2020-03-20 15:00:00 16.3 8 Sudeste 27 Este 0 -- -- 60
2020-03-20 14:00:00 15.2 21 Sudeste 34 Sudeste 0 -- -- 63
2020-03-20 13:00:00 14.9 25 Sudeste 36 Sudeste 0 -- -- 64
2020-03-20 12:00:00 14.4 25 Sudeste 35 Sudeste 0 -- -- 68
2020-03-20 11:00:00 12.2 23 Sudeste 33 Sudeste 0 -- -- 74
2020-03-20 10:00:00 10.3 23 Este 31 Este 0 -- -- 82
2020-03-20 09:00:00 9.1 21 Este 28 Este 0 -- -- 86
2020-03-20 08:00:00 8.4 18 Este 27 Este 0 -- -- 88
2020-03-20 07:00:00 8.2 16 Este 23 Este 0 -- -- 90
2020-03-20 06:00:00 9 15 Este 22 Este 0 -- -- 86
2020-03-20 05:00:00 9.2 8 Este 15 Sudeste 0 -- -- 84
2020-03-20 04:00:00 10.1 10 Sudeste 28 Sudeste 0 -- -- 79
2020-03-20 03:00:00 10.8 16 Sudeste 30 Sudeste 0 -- -- 76
2020-03-20 02:00:00 10.4 13 Sudeste 22 Sudeste 0 -- -- 80
2020-03-20 01:00:00 10.1 11 Sudeste 18 Este 0 -- -- 80
2020-03-20 00:00:00 10.8 12 Este 17 Este 0 -- -- 77
2020-03-19 23:00:00 10.8 7 Sudeste 13 Sudeste 0 -- -- 80
2020-03-19 22:00:00 11.1 5 Este 8 Este 0 -- -- 79
2020-03-19 21:00:00 11.4 7 Este 14 Este 0 -- -- 79
2020-03-19 20:00:00 11.1 8 Este 11 Este 0 -- -- 78
2020-03-19 19:00:00 12.9 6 Este 12 Sudeste 0 -- -- 70
2020-03-19 18:00:00 13.8 10 Sudeste 17 Sudeste 0 -- -- 64
2020-03-19 17:00:00 14.5 10 Sudeste 17 Sudeste 0 -- -- 64
2020-03-19 16:00:00 15.6 13 Sudeste 21 Sudeste 0 -- -- 62
2020-03-19 15:00:00 17.2 12 Sudeste 21 Sudeste 0 -- -- 57
2020-03-19 14:00:00 18.2 10 Este 19 Este 0 -- -- 57
2020-03-19 13:00:00 16.6 11 Sudeste 21 Este 0 -- -- 59
2020-03-19 12:00:00 16.1 14 Este 24 Este 0 -- -- 64
2020-03-19 11:00:00 13.2 15 Este 26 Este 0 -- -- 67
2020-03-19 10:00:00 11.7 12 Este 18 Este 0 -- -- 79
2020-03-19 09:00:00 7.9 10 Nordeste 13 Nordeste 0 -- -- 95
2020-03-19 08:00:00 6.4 9 Norte 13 Norte 0 -- -- 95
2020-03-19 07:00:00 6.2 4 Nordeste 8 Nordeste 0 -- -- 94
2020-03-19 06:00:00 6.4 8 Nordeste 14 Norte 0 -- -- 94
2020-03-19 05:00:00 7.1 10 Norte 12 Nordeste 0 -- -- 93
2020-03-19 04:00:00 7 5 Nordeste 9 Nordeste 0 -- -- 94
2020-03-19 03:00:00 7.8 6 Nordeste 10 Norte 0 -- -- 92
2020-03-19 02:00:00 8.5 6 Nordeste 7 Nordeste 0 -- -- 90
2020-03-19 01:00:00 8.3 4 Nordeste 5 Norte 0 -- -- 94
2020-03-19 00:00:00 8.8 4 Nordeste 16 Norte 0 -- -- 93
2020-03-18 23:00:00 9.5 13 Norte 15 Norte 0 -- -- 93
2020-03-18 22:00:00 11.3 9 Norte 12 Norte 0 -- -- 89
2020-03-18 21:00:00 11.9 8 Norte 10 Nordeste 0 -- -- 83
2020-03-18 20:00:00 14.3 2 Sudeste 5 Sudeste 0 -- -- 71
2020-03-18 19:00:00 15.9 4 Sudeste 8 Sudeste 0 -- -- 66
2020-03-18 18:00:00 17.7 4 Sudeste 11 Este 0 -- -- 62
2020-03-18 17:00:00 18.3 8 Este 12 Este 0 -- -- 60
2020-03-18 16:00:00 17.3 8 Norte 18 Nordeste 0 -- -- 64
2020-03-18 15:00:00 16.8 11 Nordeste 17 Nordeste 0 -- -- 66
2020-03-18 14:00:00 15.7 9 Norte 17 Nordeste 0 -- -- 71
2020-03-18 13:00:00 15 8 Nordeste 13 Nordeste 0 -- -- 74
2020-03-18 12:00:00 12.2 8 Norte 14 Este 0 -- -- 80
2020-03-18 11:00:00 10.6 12 Este 16 Este 0 -- -- 84
2020-03-18 10:00:00 8.6 10 Nordeste 14 Norte 0 -- -- 92
2020-03-18 09:00:00 6.7 9 Nordeste 12 Nordeste 0 -- -- 95
2020-03-18 08:00:00 6.3 6 Nordeste 10 Nordeste 0 -- -- 95
2020-03-18 07:00:00 5.8 9 Nordeste 13 Nordeste 0 -- -- 97
2020-03-18 06:00:00 6.5 5 Nordeste 12 Nordeste 0 -- -- 96
2020-03-18 05:00:00 6.1 12 Nordeste 17 Norte 0 -- -- 95
2020-03-18 04:00:00 6.9 7 Norte 15 Nordeste 0 -- -- 95
2020-03-18 03:00:00 7 14 Nordeste 22 Nordeste 0 -- -- 93
2020-03-18 02:00:00 7.1 14 Nordeste 22 Nordeste 0 -- -- 94
2020-03-18 01:00:00 8.2 17 Nordeste 24 Norte 0 -- -- 90
2020-03-18 00:00:00 8.3 15 Nordeste 35 Este 0 -- -- 91
2020-03-17 23:00:00 10.2 21 Este 39 Este 0 -- -- 85
2020-03-17 22:00:00 11.7 30 Este 44 Este 0 -- -- 80
2020-03-17 21:00:00 11 29 Nordeste 40 Nordeste 0 -- -- 84
2020-03-17 20:00:00 11 27 Nordeste 41 Nordeste 0 -- -- 84
2020-03-17 19:00:00 12.7 26 Nordeste 39 Nordeste 0 -- -- 80
2020-03-17 18:00:00 15.1 29 Nordeste 42 Nordeste 0 -- -- 70
2020-03-17 17:00:00 14.3 35 Nordeste 44 Nordeste 0 -- -- 71
2020-03-17 16:00:00 14.6 34 Nordeste 43 Nordeste 0 -- -- 70
2020-03-17 15:00:00 14.3 22 Nordeste 41 Este 0 -- -- 72
2020-03-17 14:00:00 13.6 31 Este 44 Este 0 -- -- 73
2020-03-17 13:00:00 11.7 33 Nordeste 46 Este 0 -- -- 79
2020-03-17 12:00:00 11.2 40 Este 55 Este 0 -- -- 78
2020-03-17 11:00:00 10.6 42 Nordeste 60 Nordeste 0 -- -- 76
2020-03-17 10:00:00 9.4 43 Nordeste 59 Nordeste 0 -- -- 79
2020-03-17 09:00:00 7.7 44 Nordeste 60 Nordeste 0 -- -- 84
2020-03-17 08:00:00 7.2 45 Nordeste 63 Nordeste 0 -- -- 85
2020-03-17 07:00:00 7.1 37 Nordeste 52 Nordeste 0 -- -- 85
2020-03-17 06:00:00 6.7 24 Nordeste 37 Este 0 -- -- 86
2020-03-17 05:00:00 6.1 24 Nordeste 32 Nordeste 0 -- -- 90
2020-03-17 04:00:00 6.5 26 Nordeste 40 Este 0 -- -- 86
2020-03-17 03:00:00 6.3 26 Este 39 Nordeste 0 -- -- 86
2020-03-17 02:00:00 6.1 30 Nordeste 63 Nordeste 0 -- -- 85
2020-03-17 01:00:00 6.2 45 Nordeste 71 Nordeste 0 -- -- 83
2020-03-17 00:00:00 6.2 48 Nordeste 69 Nordeste 0 -- -- 82
2020-03-16 23:00:00 6.1 45 Nordeste 72 Nordeste 0 -- -- 81
2020-03-16 22:00:00 5.6 39 Nordeste 64 Nordeste 0 -- -- 81
2020-03-16 21:00:00 6.2 45 Nordeste 68 Nordeste 0 -- -- 75
2020-03-16 20:00:00 6.3 37 Nordeste 58 Nordeste 0 -- -- 76
2020-03-16 19:00:00 6.6 37 Nordeste 53 Nordeste 0 -- -- 76
2020-03-16 18:00:00 6.9 41 Nordeste 58 Nordeste 0 -- -- 74
2020-03-16 17:00:00 7.1 46 Nordeste 71 Nordeste 0 -- -- 74
2020-03-16 16:00:00 7 36 Nordeste 48 Nordeste 0 -- -- 73
2020-03-16 15:00:00 6.5 28 Nordeste 44 Nordeste 0.2 -- -- 79
2020-03-16 14:00:00 5.8 19 Norte 37 Norte 0 -- -- 80
2020-03-16 13:00:00 5.3 26 Norte 41 Nordeste 0.2 -- -- 88
2020-03-16 12:00:00 3.9 25 Norte 37 Norte 0.2 -- -- 87
2020-03-16 11:00:00 2.2 20 Norte 30 Norte 0.2 -- -- 94
2020-03-16 10:00:00 2.3 19 Norte 27 Norte 0.6 -- -- 94
2020-03-16 09:00:00 1.7 13 Norte 32 Norte 1.4 -- -- 99
2020-03-16 08:00:00 0.7 24 Norte 35 Noroeste 1.4 -- -- 99
2020-03-16 07:00:00 0.2 22 Noroeste 32 Noroeste 0.6 -- -- 99
2020-03-16 06:00:00 0.2 21 Noroeste 30 Noroeste 0.2 -- -- 99
2020-03-16 05:00:00 0.4 17 Norte 32 Noroeste 0.2 -- -- 97
2020-03-16 04:00:00 0.7 16 Noroeste 22 Noroeste 0.8 -- -- 97
2020-03-16 03:00:00 1.8 17 Noroeste 30 Noroeste 0.6 -- -- 95
2020-03-16 02:00:00 2.7 19 Noroeste 30 Noroeste 0.2 -- -- 94
2020-03-16 01:00:00 2.8 23 Noroeste 33 Noroeste 0 -- -- 92
2020-03-16 00:00:00 2.9 22 Noroeste 35 Norte 0.6 -- -- 93
2020-03-15 23:00:00 2.7 27 Norte 52 Noroeste 0.8 -- -- 93
2020-03-15 22:00:00 3.4 35 Noroeste 56 Oeste 0.2 -- -- 88
2020-03-15 21:00:00 9.5 28 Oeste 44 Oeste 0 -- -- 71
2020-03-15 20:00:00 9.8 19 Oeste 37 Oeste 0 -- -- 62
2020-03-15 19:00:00 12.6 24 Sudoeste 43 Sudoeste 0 -- -- 56
2020-03-15 18:00:00 14.1 31 Oeste 47 Oeste 0 -- -- 55
2020-03-15 17:00:00 16 35 Oeste 48 Oeste 0 -- -- 50
2020-03-15 16:00:00 17.5 32 Oeste 55 Oeste 0 -- -- 45
2020-03-15 15:00:00 17.6 42 Sudoeste 54 Sudoeste 0 -- -- 49
2020-03-15 14:00:00 19 15 Sudoeste 33 Sudoeste 0 -- -- 42
2020-03-15 13:00:00 18.1 3 Nordeste 9 Oeste 0 -- -- 39
2020-03-15 12:00:00 14.4 4 Sur 11 Este 0 -- -- 51
2020-03-15 11:00:00 10.5 7 Sudeste 18 Sudeste 0 -- -- 59
2020-03-15 10:00:00 7 13 Este 20 Este 0 -- -- 70
2020-03-15 09:00:00 3.5 6 Este 10 Este 0 -- -- 79
2020-03-15 08:00:00 -0.7 4 Nordeste 11 Nordeste 0 -- -- 89
2020-03-15 07:00:00 -0.6 7 Nordeste 21 Este 0 -- -- 87
2020-03-15 06:00:00 2.1 15 Este 21 Este 0 -- -- 80
2020-03-15 05:00:00 -0.1 5 Nordeste 8 Este 0 -- -- 86
2020-03-15 04:00:00 1.1 3 Nordeste 13 Nordeste 0 -- -- 84
2020-03-15 03:00:00 1.3 10 Nordeste 12 Nordeste 0 -- -- 84
2020-03-15 02:00:00 2.5 5 Nordeste 10 Nordeste 0 -- -- 81
2020-03-15 01:00:00 2.9 9 Nordeste 11 Nordeste 0 -- -- 82
2020-03-15 00:00:00 4.4 7 Norte 13 Nordeste 0 -- -- 78
2020-03-14 23:00:00 6.6 10 Nordeste 14 Norte 0 -- -- 70
2020-03-14 22:00:00 7.2 12 Nordeste 13 Nordeste 0 -- -- 72
2020-03-14 21:00:00 9.4 9 Norte 10 Norte 0 -- -- 60
2020-03-14 20:00:00 13.5 3 Norte 3 Norte 0 -- -- 44
2020-03-14 19:00:00 18 3 Norte 5 Norte 0 -- -- 31
2020-03-14 18:00:00 18.9 4 Norte 12 Norte 0 -- -- 28
2020-03-14 17:00:00 19.7 4 Sudoeste 13 Este 0 -- -- 29
2020-03-14 16:00:00 19.5 5 Sudeste 23 Sudeste 0 -- -- 33
2020-03-14 15:00:00 18.6 5 Sudeste 14 Este 0 -- -- 32
2020-03-14 14:00:00 17.4 7 Este 16 Este 0 -- -- 33
2020-03-14 13:00:00 15.4 5 Este 13 Norte 0 -- -- 44
2020-03-14 12:00:00 11.7 5 Nordeste 11 Nordeste 0 -- -- 48
2020-03-14 11:00:00 9.2 8 Nordeste 14 Nordeste 0 -- -- 54
2020-03-14 10:00:00 6.5 6 Nordeste 12 Norte 0 -- -- 77
2020-03-14 09:00:00 1.8 9 Nordeste 12 Norte 0 -- -- 91
2020-03-14 08:00:00 -0.4 5 Nordeste 10 Nordeste 0 -- -- 93
2020-03-14 07:00:00 -0.3 9 Nordeste 13 Nordeste 0 -- -- 95
2020-03-14 06:00:00 0.7 10 Norte 13 Nordeste 0 -- -- 95
2020-03-14 05:00:00 1.1 8 Norte 10 Norte 0 -- -- 94
2020-03-14 04:00:00 1.8 7 Norte 9 Nordeste 0 -- -- 94
2020-03-14 03:00:00 1.9 5 Nordeste 7 Nordeste 0 -- -- 94
2020-03-14 02:00:00 3.5 2 Este 5 Este 0 -- -- 92
2020-03-14 01:00:00 4.2 4 Norte 10 Nordeste 0 -- -- 91
2020-03-14 00:00:00 4.6 5 Nordeste 17 Nordeste 0 -- -- 89
2020-03-13 23:00:00 4.8 8 Este 17 Nordeste 0 -- -- 90
2020-03-13 22:00:00 5.1 14 Nordeste 18 Nordeste 0 -- -- 91
2020-03-13 21:00:00 6.6 9 Nordeste 15 Nordeste 0 -- -- 88
2020-03-13 20:00:00 9.2 12 Nordeste 23 Nordeste 0 -- -- 80
2020-03-13 19:00:00 12.8 15 Nordeste 29 Norte 0 -- -- 67
2020-03-13 18:00:00 14.6 18 Nordeste 28 Nordeste 0 -- -- 62
2020-03-13 17:00:00 15.6 17 Norte 24 Norte 0 -- -- 62
2020-03-13 16:00:00 16.3 14 Norte 27 Norte 0 -- -- 60
2020-03-13 15:00:00 15.5 15 Nordeste 26 Nordeste 0 -- -- 63
2020-03-13 14:00:00 15.8 11 Nordeste 21 Nordeste 0 -- -- 62
2020-03-13 13:00:00 14.5 8 Nordeste 21 Nordeste 0 -- -- 64
2020-03-13 12:00:00 13.1 11 Nordeste 25 Nordeste 0 -- -- 68
2020-03-13 11:00:00 11.8 12 Nordeste 32 Nordeste 0 -- -- 71
2020-03-13 10:00:00 9.8 24 Nordeste 40 Este 0 -- -- 78
2020-03-13 09:00:00 8.5 14 Nordeste 22 Nordeste 0 -- -- 83
2020-03-13 08:00:00 6.9 11 Nordeste 28 Nordeste 0 -- -- 88
2020-03-13 07:00:00 6.4 12 Nordeste 18 Nordeste 0 -- -- 91
2020-03-13 06:00:00 6.5 8 Nordeste 13 Nordeste 0 -- -- 91
2020-03-13 05:00:00 6.7 2 Norte 14 Este 0 -- -- 89
2020-03-13 04:00:00 7.1 6 Nordeste 15 Nordeste 0 -- -- 90
2020-03-13 03:00:00 8 8 Nordeste 23 Este 0 -- -- 87
2020-03-13 02:00:00 8.3 16 Nordeste 30 Nordeste 0 -- -- 89
2020-03-13 01:00:00 8.7 23 Nordeste 38 Nordeste 0 -- -- 88
2020-03-13 00:00:00 9 24 Nordeste 32 Nordeste 0 -- -- 88
2020-03-12 23:00:00 9.7 25 Nordeste 31 Nordeste 0 -- -- 87
2020-03-12 22:00:00 10.8 22 Nordeste 30 Nordeste 0 -- -- 84
2020-03-12 21:00:00 12.5 19 Nordeste 24 Nordeste 0 -- -- 83
2020-03-12 20:00:00 14.8 14 Nordeste 23 Nordeste 0 -- -- 79
2020-03-12 19:00:00 17.8 3 Norte 9 Norte 0 -- -- 63
2020-03-12 18:00:00 18.9 5 Norte 13 Norte 0 -- -- 62
2020-03-12 17:00:00 19.5 8 Norte 15 Noroeste 0 -- -- 56
2020-03-12 16:00:00 20.3 8 Noroeste 15 Noroeste 0 -- -- 52
2020-03-12 15:00:00 19.9 9 Noroeste 13 Noroeste 0 -- -- 53
2020-03-12 14:00:00 20.9 4 Este 8 Nordeste 0 -- -- 54
2020-03-12 13:00:00 17.4 2 Norte 8 Nordeste 0 -- -- 61
2020-03-12 12:00:00 16 3 Este 12 Este 0 -- -- 63
2020-03-12 11:00:00 14.6 6 Este 14 Este 0 -- -- 69
2020-03-12 10:00:00 12.6 9 Este 14 Sudeste 0 -- -- 77
2020-03-12 09:00:00 8.7 4 Nordeste 10 Nordeste 0 -- -- 87
2020-03-12 08:00:00 8 6 Nordeste 9 Nordeste 0 -- -- 88
2020-03-12 07:00:00 8.1 6 Norte 10 Este 0 -- -- 87
2020-03-12 06:00:00 8.2 6 Nordeste 10 Este 0 -- -- 87
2020-03-12 05:00:00 8.7 7 Nordeste 9 Nordeste 0 -- -- 84
2020-03-12 04:00:00 8.4 9 Nordeste 12 Nordeste 0 -- -- 85
2020-03-12 03:00:00 8.4 10 Nordeste 13 Nordeste 0 -- -- 84
2020-03-12 02:00:00 9.4 5 Nordeste 14 Nordeste 0 -- -- 80
2020-03-12 01:00:00 9.7 12 Nordeste 14 Nordeste 0 -- -- 79
2020-03-12 00:00:00 10.7 10 Nordeste 11 Nordeste 0 -- -- 77
2020-03-11 23:00:00 12.5 6 Nordeste 11 Nordeste 0 -- -- 72
2020-03-11 22:00:00 14 8 Nordeste 9 Nordeste 0 -- -- 67
2020-03-11 21:00:00 17 0 Calma 6 Noroeste 0 -- -- 53
2020-03-11 20:00:00 17.4 6 Norte 10 Oeste 0 -- -- 54
2020-03-11 19:00:00 19.2 6 Oeste 21 Sudoeste 0 -- -- 53
2020-03-11 18:00:00 22.1 17 Sudoeste 23 Oeste 0 -- -- 40
2020-03-11 17:00:00 23.9 18 Sudoeste 29 Oeste 0 -- -- 38
2020-03-11 16:00:00 23.6 19 Oeste 27 Oeste 0 -- -- 35
2020-03-11 15:00:00 24.1 8 Sudoeste 16 Oeste 0 -- -- 38
2020-03-11 14:00:00 22.7 5 Sur 13 Oeste 0 -- -- 40
2020-03-11 13:00:00 21.3 4 Sur 13 Sudeste 0 -- -- 44
2020-03-11 12:00:00 17.5 8 Sudeste 13 Sudeste 0 -- -- 52
2020-03-11 11:00:00 14 7 Sudeste 13 Este 0 -- -- 69
2020-03-11 10:00:00 10.7 8 Este 12 Este 0 -- -- 77
2020-03-11 09:00:00 5.3 5 Nordeste 9 Este 0 -- -- 85
2020-03-11 08:00:00 2.1 6 Nordeste 11 Nordeste 0 -- -- 88
2020-03-11 07:00:00 2.1 8 Nordeste 11 Nordeste 0 -- -- 87
2020-03-11 06:00:00 2.4 8 Nordeste 10 Nordeste 0 -- -- 86
2020-03-11 05:00:00 3.1 7 Nordeste 9 Nordeste 0 -- -- 83
2020-03-11 04:00:00 4.1 8 Nordeste 14 Norte 0 -- -- 80
2020-03-11 03:00:00 4.4 13 Nordeste 15 Norte 0 -- -- 79
2020-03-11 02:00:00 5.2 5 Norte 10 Norte 0 -- -- 77
2020-03-11 01:00:00 6 3 Este 10 Nordeste 0 -- -- 76
2020-03-11 00:00:00 7.5 8 Nordeste 10 Nordeste 0 -- -- 71